createdAt,value
2023-05-21T00:02:24.932Z,20.90
2023-05-21T00:07:27.189Z,20.80
2023-05-21T00:12:29.110Z,20.60
2023-05-21T00:17:31.062Z,20.50
2023-05-21T00:22:33.570Z,20.50
2023-05-21T00:27:35.617Z,20.50
2023-05-21T00:32:37.959Z,20.50
2023-05-21T00:37:40.809Z,20.40
2023-05-21T00:42:42.741Z,20.50
2023-05-21T00:47:45.991Z,20.50
2023-05-21T00:52:49.039Z,20.40
2023-05-21T00:57:51.047Z,20.40
2023-05-21T01:02:53.387Z,20.40
2023-05-21T01:07:58.145Z,20.30
2023-05-21T01:13:00.508Z,20.30
2023-05-21T01:18:02.959Z,20.20
2023-05-21T01:23:05.979Z,20.10
2023-05-21T01:28:08.157Z,20.00
2023-05-21T01:33:33.666Z,20.00
2023-05-21T01:38:51.717Z,19.90
2023-05-21T01:43:55.875Z,19.80
2023-05-21T01:48:58.038Z,19.70
2023-05-21T01:54:00.002Z,19.60
2023-05-21T01:59:02.099Z,19.60
2023-05-21T02:04:04.175Z,19.60
2023-05-21T02:09:08.137Z,19.50
2023-05-21T02:14:10.407Z,19.50
2023-05-21T02:19:12.455Z,19.40
2023-05-21T02:24:14.669Z,19.40
2023-05-21T02:29:16.874Z,19.30
2023-05-21T02:34:20.633Z,19.20
2023-05-21T02:39:22.707Z,19.10
2023-05-21T02:44:24.837Z,19.10
2023-05-21T02:49:27.051Z,19.10
2023-05-21T02:54:28.987Z,19.10
2023-05-21T02:59:31.511Z,19.10
2023-05-21T03:04:38.827Z,19.10
2023-05-21T03:09:44.309Z,19.10
2023-05-21T03:14:46.557Z,19.10
2023-05-21T03:19:49.436Z,19.10
2023-05-21T03:24:51.678Z,19.10
2023-05-21T03:29:55.955Z,19.10
2023-05-21T03:34:59.190Z,19.00
2023-05-21T03:40:01.363Z,18.90
2023-05-21T03:45:06.950Z,18.90
2023-05-21T03:50:27.732Z,18.80
2023-05-21T03:55:30.056Z,18.70
2023-05-21T04:00:32.806Z,18.70
2023-05-21T04:05:35.067Z,18.60
2023-05-21T04:10:37.377Z,18.50
2023-05-21T04:15:39.517Z,18.60
2023-05-21T04:20:41.647Z,18.60
2023-05-21T04:25:43.713Z,18.60
2023-05-21T04:30:47.690Z,18.60
2023-05-21T04:35:51.722Z,18.50
2023-05-21T04:40:53.793Z,18.40
2023-05-21T04:45:56.316Z,18.40
2023-05-21T04:50:59.917Z,18.50
2023-05-21T04:56:03.968Z,18.50
2023-05-21T05:01:06.046Z,18.50
2023-05-21T05:06:08.740Z,18.60
2023-05-21T05:11:11.122Z,18.60
2023-05-21T05:16:14.558Z,18.60
2023-05-21T05:21:16.816Z,18.60
2023-05-21T05:26:19.823Z,18.70
2023-05-21T05:31:21.979Z,18.70
2023-05-21T05:36:24.270Z,18.70
2023-05-21T05:41:27.497Z,18.80
2023-05-21T05:46:30.963Z,18.90
2023-05-21T05:51:33.090Z,19.00
2023-05-21T05:56:35.206Z,18.90
2023-05-21T06:01:40.082Z,18.90
2023-05-21T06:06:42.282Z,19.00
2023-05-21T06:11:44.740Z,19.10
2023-05-21T06:16:46.760Z,19.20
2023-05-21T06:21:49.124Z,19.40
2023-05-21T06:26:52.344Z,19.50
2023-05-21T06:31:58.154Z,19.50
2023-05-21T06:37:00.185Z,19.50
2023-05-21T06:42:02.325Z,19.50
2023-05-21T06:47:33.548Z,19.60
2023-05-21T06:52:35.556Z,19.70
2023-05-21T06:57:39.016Z,19.80
2023-05-21T07:02:41.022Z,19.80
2023-05-21T07:07:43.870Z,19.90
2023-05-21T07:12:45.831Z,20.00
2023-05-21T07:17:48.503Z,20.20
2023-05-21T07:22:51.037Z,20.20
2023-05-21T07:27:53.070Z,20.30
2023-05-21T07:32:55.617Z,20.40
2023-05-21T07:37:58.578Z,20.50
2023-05-21T07:43:00.585Z,20.60
2023-05-21T07:48:05.199Z,20.80
2023-05-21T07:53:09.289Z,21.00
2023-05-21T07:58:11.364Z,21.00
2023-05-21T08:03:17.571Z,21.20
2023-05-21T08:08:22.127Z,21.30
2023-05-21T08:13:25.953Z,21.60
2023-05-21T08:18:28.484Z,21.80
2023-05-21T08:23:31.874Z,22.00
2023-05-21T08:28:38.331Z,22.30
2023-05-21T08:33:40.400Z,22.30
2023-05-21T08:38:42.250Z,22.30
2023-05-21T08:43:56.760Z,22.40
2023-05-21T08:49:01.586Z,22.60
2023-05-21T08:54:05.496Z,22.60
2023-05-21T08:59:15.301Z,22.80
2023-05-21T09:04:21.363Z,23.10
2023-05-21T09:09:50.337Z,23.40
2023-05-21T09:14:53.067Z,23.60
2023-05-21T09:20:15.926Z,23.80
2023-05-21T09:25:28.264Z,24.10
2023-05-21T09:30:35.780Z,24.40
2023-05-21T09:35:45.806Z,24.60
2023-05-21T09:40:49.759Z,24.70
2023-05-21T09:45:53.095Z,24.80
2023-05-21T09:51:16.793Z,25.10
2023-05-21T09:56:24.636Z,25.40
2023-05-21T10:01:27.344Z,25.30
2023-05-21T10:06:31.350Z,25.40
2023-05-21T10:11:34.724Z,25.60
2023-05-21T10:16:37.497Z,25.80
2023-05-21T10:21:41.045Z,25.90
2023-05-21T10:26:43.396Z,25.80
2023-05-21T10:31:49.858Z,25.50
2023-05-21T10:36:54.584Z,25.60
2023-05-21T10:42:26.007Z,25.70
2023-05-21T10:47:54.138Z,26.00
2023-05-21T10:53:30.047Z,26.00
2023-05-21T10:59:00.852Z,25.90
2023-05-21T11:04:03.936Z,25.90
2023-05-21T11:09:13.797Z,26.10
2023-05-21T11:14:43.548Z,26.10
2023-05-21T11:19:51.370Z,26.20
2023-05-21T11:25:01.964Z,26.40
2023-05-21T11:30:08.163Z,26.50
2023-05-21T11:35:14.224Z,26.50
2023-05-21T11:40:22.829Z,26.40
2023-05-21T11:45:30.824Z,26.50
2023-05-21T11:50:34.096Z,26.70
2023-05-21T11:55:43.636Z,26.90
2023-05-21T12:00:45.674Z,27.10
2023-05-21T12:05:48.856Z,27.30
2023-05-21T12:10:58.880Z,27.40
2023-05-21T12:16:03.447Z,27.50
2023-05-21T12:21:07.145Z,27.60
2023-05-21T12:26:09.284Z,27.40
2023-05-21T12:31:16.138Z,27.40
2023-05-21T12:36:27.917Z,27.50
2023-05-21T12:41:30.080Z,27.70
2023-05-21T12:46:32.203Z,27.80
2023-05-21T12:51:40.724Z,27.80
2023-05-21T12:56:46.515Z,27.80
2023-05-21T13:01:48.874Z,27.80
2023-05-21T13:06:50.897Z,27.90
2023-05-21T13:11:52.859Z,27.90
2023-05-21T13:16:54.811Z,27.80
2023-05-21T13:21:56.734Z,27.70
2023-05-21T13:26:58.852Z,27.80
2023-05-21T13:32:00.940Z,28.00
2023-05-21T13:37:02.917Z,28.20
2023-05-21T13:42:05.894Z,28.50
2023-05-21T13:47:10.285Z,28.80
2023-05-21T13:52:12.787Z,29.00
2023-05-21T13:57:15.261Z,29.20
2023-05-21T14:02:17.346Z,29.40
2023-05-21T14:07:19.445Z,29.50
2023-05-21T14:12:21.839Z,29.70
2023-05-21T14:17:23.869Z,29.90
2023-05-21T14:22:25.812Z,30.10
2023-05-21T14:27:27.742Z,30.10
2023-05-21T14:32:29.827Z,30.20
2023-05-21T14:37:31.986Z,30.30
2023-05-21T14:42:35.367Z,30.10
2023-05-21T14:47:37.274Z,30.00
2023-05-21T14:52:42.635Z,30.10
2023-05-21T14:57:45.054Z,30.30
2023-05-21T15:02:47.094Z,30.40
2023-05-21T15:07:49.254Z,30.50
2023-05-21T15:12:51.470Z,30.60
2023-05-21T15:17:53.643Z,30.70
2023-05-21T15:23:05.077Z,30.80
2023-05-21T15:28:14.795Z,31.00
2023-05-21T15:33:16.793Z,31.20
2023-05-21T15:38:18.882Z,31.20
2023-05-21T15:43:20.851Z,31.20
2023-05-21T15:48:23.094Z,31.10
2023-05-21T15:53:25.271Z,31.10
2023-05-21T15:58:27.259Z,31.10
2023-05-21T16:03:29.311Z,31.10
2023-05-21T16:08:31.516Z,31.20
2023-05-21T16:13:33.481Z,31.30
2023-05-21T16:18:35.517Z,31.40
2023-05-21T16:23:38.734Z,31.40
2023-05-21T16:28:40.680Z,31.30
2023-05-21T16:33:45.835Z,31.20
2023-05-21T16:38:50.850Z,31.20
2023-05-21T16:43:54.371Z,31.30
2023-05-21T16:48:56.419Z,31.30
2023-05-21T16:53:58.424Z,31.20
2023-05-21T16:59:00.716Z,31.20
2023-05-21T17:04:02.805Z,30.90
2023-05-21T17:09:05.103Z,30.60
2023-05-21T17:14:07.234Z,30.40
2023-05-21T17:19:09.842Z,30.40
2023-05-21T17:24:12.365Z,30.40
2023-05-21T17:29:14.444Z,30.40
2023-05-21T17:34:16.737Z,30.30
2023-05-21T17:39:20.475Z,30.30
2023-05-21T17:44:22.532Z,30.30
2023-05-21T17:49:24.573Z,30.20
2023-05-21T17:54:26.539Z,30.20
2023-05-21T17:59:28.550Z,30.20
2023-05-21T18:04:30.898Z,30.00
2023-05-21T18:09:32.898Z,29.90
2023-05-21T18:14:34.923Z,29.90
2023-05-21T18:19:36.921Z,29.80
2023-05-21T18:24:39.723Z,29.80
2023-05-21T18:29:41.719Z,29.80
2023-05-21T18:34:44.065Z,29.60
2023-05-21T18:39:46.095Z,29.40
2023-05-21T18:44:51.259Z,29.40
2023-05-21T18:49:53.334Z,29.30
2023-05-21T18:54:58.326Z,29.20
2023-05-21T19:00:01.113Z,29.10
2023-05-21T19:05:03.313Z,28.90
2023-05-21T19:10:05.814Z,28.80
2023-05-21T19:15:08.455Z,28.80
2023-05-21T19:20:10.720Z,28.60
2023-05-21T19:25:12.707Z,28.40
2023-05-21T19:30:14.703Z,28.10
2023-05-21T19:35:16.735Z,27.80
2023-05-21T19:40:19.244Z,27.70
2023-05-21T19:45:21.634Z,27.50
2023-05-21T19:50:23.778Z,27.40
2023-05-21T19:55:25.727Z,27.20
2023-05-21T20:00:28.677Z,27.20
2023-05-21T20:05:30.570Z,27.00
2023-05-21T20:10:32.474Z,26.90
2023-05-21T20:15:34.679Z,26.90
2023-05-21T20:20:38.126Z,26.80
2023-05-21T20:25:40.274Z,26.70
2023-05-21T20:31:00.584Z,26.50
2023-05-21T20:36:03.432Z,26.30
2023-05-21T20:41:05.620Z,26.00
2023-05-21T20:46:08.053Z,25.90
2023-05-21T20:51:10.138Z,25.70
2023-05-21T20:56:26.615Z,25.40
2023-05-21T21:01:37.885Z,25.30
2023-05-21T21:06:40.456Z,25.30
2023-05-21T21:11:42.477Z,25.20
2023-05-21T21:16:44.428Z,25.20
2023-05-21T21:21:47.711Z,25.20
2023-05-21T21:26:49.733Z,25.10
2023-05-21T21:31:52.368Z,25.10
2023-05-21T21:36:54.544Z,25.00
2023-05-21T21:41:56.374Z,25.00
2023-05-21T21:46:58.267Z,24.90
2023-05-21T21:52:00.338Z,24.80
2023-05-21T21:57:02.879Z,24.80
2023-05-21T22:02:05.793Z,24.70
2023-05-21T22:07:10.736Z,24.50
2023-05-21T22:12:13.560Z,24.40
2023-05-21T22:17:17.932Z,24.10
2023-05-21T22:22:19.851Z,24.00
2023-05-21T22:27:21.751Z,23.90
2023-05-21T22:32:23.594Z,23.70
2023-05-21T22:37:27.356Z,23.50
2023-05-21T22:42:29.423Z,23.50
2023-05-21T22:47:32.246Z,23.50
2023-05-21T22:52:38.150Z,23.50
2023-05-21T22:57:40.154Z,23.40
2023-05-21T23:02:42.103Z,23.40
2023-05-21T23:07:44.035Z,23.30
2023-05-21T23:12:45.927Z,23.30
2023-05-21T23:17:47.958Z,23.30
2023-05-21T23:22:49.927Z,23.30
2023-05-21T23:27:51.837Z,23.30
2023-05-21T23:32:53.741Z,23.30
2023-05-21T23:37:58.895Z,23.40
2023-05-21T23:43:01.289Z,23.40
2023-05-21T23:48:03.738Z,23.40
2023-05-21T23:53:05.722Z,23.30
2023-05-21T23:58:07.583Z,23.20
